ABY154 OMSJ-OERK
Flight info
| Callsign | ABY154 |
|---|---|
| Flight time | N/A |
| Altitude | 30000 |
| Route | SENPA N571 ALPOB L768 ULADA T136 EMUSA Q212 MEMGO |
| Aircraft | A320/M-SDE3FGHIRWY/LB1 |
Departure
| Time | 2026-04-21 10:07 |
|---|---|
| Airport | Sharjah International Airport (OMSJ) |
Arrival
| Time | N/A |
|---|---|
| Airport | King Khalid International Airport (OERK) |
| Time | Latitude | Longitude | Altitude | Speed | Heading |
|---|---|---|---|---|---|
| 2026-04-21 09:33 | 25.32317 | 55.52018 | 115 ft | 0 kts | 212° |
| 2026-04-21 09:39 | 25.32318 | 55.52018 | 115 ft | 0 kts | 212° |
| 2026-04-21 09:56 | 25.32328 | 55.52025 | 115 ft | 4 kts | 212° |
| 2026-04-21 09:57 | 25.32351 | 55.52040 | 115 ft | 4 kts | 210° |
| 2026-04-21 09:57 | 25.32375 | 55.52055 | 115 ft | 4 kts | 208° |
| 2026-04-21 09:57 | 25.32399 | 55.52069 | 114 ft | 4 kts | 205° |
| 2026-04-21 09:57 | 25.32423 | 55.52080 | 115 ft | 4 kts | 197° |
| 2026-04-21 09:58 | 25.32449 | 55.52085 | 115 ft | 4 kts | 156° |
| 2026-04-21 09:58 | 25.32458 | 55.52077 | 115 ft | 1 kts | 122° |
| 2026-04-21 09:58 | 25.32459 | 55.52076 | 115 ft | 0 kts | 122° |
| 2026-04-21 10:01 | 25.32452 | 55.52088 | 114 ft | 5 kts | 122° |
| 2026-04-21 10:01 | 25.32418 | 55.52148 | 114 ft | 12 kts | 122° |
| 2026-04-21 10:01 | 25.32370 | 55.52231 | 115 ft | 13 kts | 123° |
| 2026-04-21 10:02 | 25.32269 | 55.52406 | 114 ft | 14 kts | 122° |
| 2026-04-21 10:02 | 25.32215 | 55.52500 | 114 ft | 15 kts | 122° |
| 2026-04-21 10:02 | 25.32155 | 55.52603 | 114 ft | 17 kts | 122° |
| 2026-04-21 10:03 | 25.32091 | 55.52715 | 115 ft | 18 kts | 122° |
| 2026-04-21 10:03 | 25.32020 | 55.52837 | 115 ft | 20 kts | 122° |
| 2026-04-21 10:03 | 25.31945 | 55.52970 | 113 ft | 21 kts | 122° |
| 2026-04-21 10:03 | 25.31864 | 55.53110 | 115 ft | 22 kts | 122° |
| 2026-04-21 10:04 | 25.31792 | 55.53258 | 115 ft | 22 kts | 103° |
| 2026-04-21 10:04 | 25.31841 | 55.53393 | 115 ft | 21 kts | 28° |
| 2026-04-21 10:04 | 25.31888 | 55.53425 | 115 ft | 0 kts | 32° |
| 2026-04-21 10:04 | 25.31891 | 55.53426 | 112 ft | 2 kts | 32° |
| 2026-04-21 10:05 | 25.31918 | 55.53445 | 116 ft | 7 kts | 32° |
| 2026-04-21 10:05 | 25.31974 | 55.53484 | 117 ft | 12 kts | 32° |
| 2026-04-21 10:05 | 25.32063 | 55.53517 | 118 ft | 16 kts | 355° |
| 2026-04-21 10:05 | 25.32150 | 55.53419 | 115 ft | 21 kts | 302° |
| 2026-04-21 10:06 | 25.32292 | 55.53174 | 117 ft | 70 kts | 302° |
| 2026-04-21 10:06 | 25.32667 | 55.52522 | 117 ft | 129 kts | 302° |
| 2026-04-21 10:06 | 25.33233 | 55.51531 | 121 ft | 174 kts | 302° |
| 2026-04-21 10:06 | 25.33902 | 55.50348 | 603 ft | 183 kts | 302° |
| 2026-04-21 10:07 | 25.34593 | 55.49144 | 1215 ft | 190 kts | 302° |
| 2026-04-21 10:07 | 25.35345 | 55.47849 | 1480 ft | 211 kts | 302° |
| 2026-04-21 10:07 | 25.36184 | 55.46399 | 1786 ft | 230 kts | 302° |
| 2026-04-21 10:07 | 25.37060 | 55.44871 | 2048 ft | 237 kts | 302° |
| 2026-04-21 10:08 | 25.37941 | 55.43330 | 2014 ft | 237 kts | 302° |
| 2026-04-21 10:08 | 25.38818 | 55.41794 | 2001 ft | 237 kts | 302° |
| 2026-04-21 10:08 | 25.39693 | 55.40253 | 1983 ft | 236 kts | 302° |
| 2026-04-21 10:08 | 25.40568 | 55.38718 | 1985 ft | 236 kts | 302° |
| 2026-04-21 10:09 | 25.41457 | 55.37195 | 1985 ft | 236 kts | 302° |
| 2026-04-21 10:09 | 25.42352 | 55.35674 | 1979 ft | 236 kts | 303° |
| 2026-04-21 10:09 | 25.43249 | 55.34157 | 1981 ft | 236 kts | 303° |
| 2026-04-21 10:09 | 25.44142 | 55.32639 | 1983 ft | 236 kts | 303° |
| 2026-04-21 10:10 | 25.45040 | 55.31115 | 1990 ft | 236 kts | 302° |
| 2026-04-21 10:10 | 25.45853 | 55.29548 | 1991 ft | 235 kts | 290° |
| 2026-04-21 10:10 | 25.46208 | 55.27772 | 2010 ft | 246 kts | 270° |
| 2026-04-21 10:10 | 25.46179 | 55.26479 | 2241 ft | 261 kts | 267° |
| 2026-04-21 10:11 | 25.46126 | 55.24435 | 2921 ft | 268 kts | 268° |
| 2026-04-21 10:11 | 25.46081 | 55.22358 | 3678 ft | 272 kts | 268° |
| 2026-04-21 10:11 | 25.46041 | 55.20246 | 4445 ft | 275 kts | 268° |
| 2026-04-21 10:11 | 25.46001 | 55.18119 | 5229 ft | 277 kts | 268° |
| 2026-04-21 10:12 | 25.45962 | 55.15984 | 6021 ft | 279 kts | 268° |
| 2026-04-21 10:12 | 25.45922 | 55.13832 | 6815 ft | 280 kts | 269° |
| 2026-04-21 10:12 | 25.45880 | 55.11637 | 7557 ft | 283 kts | 269° |
| 2026-04-21 10:12 | 25.45803 | 55.09452 | 8255 ft | 286 kts | 263° |
| 2026-04-21 10:13 | 25.45297 | 55.07314 | 8934 ft | 290 kts | 248° |
| 2026-04-21 10:13 | 25.44278 | 55.05380 | 9565 ft | 294 kts | 235° |
| 2026-04-21 10:13 | 25.43079 | 55.03537 | 10243 ft | 297 kts | 235° |
| 2026-04-21 10:13 | 25.41834 | 55.01622 | 10480 ft | 317 kts | 235° |
| 2026-04-21 10:14 | 25.40504 | 54.99574 | 10689 ft | 336 kts | 235° |
| 2026-04-21 10:14 | 25.39120 | 54.97443 | 11200 ft | 344 kts | 235° |
| 2026-04-21 10:14 | 25.37723 | 54.95288 | 11865 ft | 346 kts | 236° |
| 2026-04-21 10:14 | 25.36315 | 54.93115 | 12571 ft | 348 kts | 236° |
| 2026-04-21 10:15 | 25.34851 | 54.90982 | 13250 ft | 350 kts | 229° |
| 2026-04-21 10:15 | 25.33063 | 54.89135 | 13896 ft | 354 kts | 222° |
| 2026-04-21 10:15 | 25.31212 | 54.87338 | 14548 ft | 354 kts | 227° |
| 2026-04-21 10:15 | 25.29683 | 54.85212 | 15173 ft | 354 kts | 240° |
| 2026-04-21 10:16 | 25.28652 | 54.82744 | 15794 ft | 355 kts | 253° |
| 2026-04-21 10:16 | 25.28178 | 54.80069 | 16398 ft | 356 kts | 265° |
| 2026-04-21 10:16 | 25.28093 | 54.77325 | 16986 ft | 358 kts | 268° |
| 2026-04-21 10:16 | 25.28174 | 54.74570 | 17558 ft | 361 kts | 276° |
| 2026-04-21 10:17 | 25.28725 | 54.71851 | 18127 ft | 364 kts | 284° |
| 2026-04-21 10:17 | 25.29412 | 54.69148 | 18680 ft | 366 kts | 283° |
| 2026-04-21 10:17 | 25.30098 | 54.66430 | 19195 ft | 369 kts | 283° |
| 2026-04-21 10:17 | 25.30790 | 54.63689 | 19698 ft | 371 kts | 283° |
| 2026-04-21 10:18 | 25.31486 | 54.60930 | 20168 ft | 374 kts | 283° |
| 2026-04-21 10:18 | 25.32183 | 54.58146 | 20624 ft | 377 kts | 283° |
| 2026-04-21 10:18 | 25.32885 | 54.55344 | 21067 ft | 380 kts | 283° |
| 2026-04-21 10:18 | 25.33600 | 54.52516 | 21498 ft | 384 kts | 283° |
| 2026-04-21 10:19 | 25.34348 | 54.49673 | 21924 ft | 387 kts | 284° |
| 2026-04-21 10:19 | 25.35125 | 54.46819 | 22352 ft | 389 kts | 284° |
| 2026-04-21 10:19 | 25.35917 | 54.43946 | 22752 ft | 392 kts | 284° |
| 2026-04-21 10:19 | 25.36714 | 54.41054 | 23139 ft | 395 kts | 284° |
| 2026-04-21 10:20 | 25.37521 | 54.38098 | 23528 ft | 397 kts | 284° |
| 2026-04-21 10:20 | 25.38318 | 54.35164 | 23929 ft | 400 kts | 284° |
| 2026-04-21 10:20 | 25.39113 | 54.32210 | 24300 ft | 402 kts | 284° |
| 2026-04-21 10:20 | 25.39911 | 54.29242 | 24676 ft | 404 kts | 284° |
| 2026-04-21 10:21 | 25.40705 | 54.26256 | 25028 ft | 406 kts | 283° |
| 2026-04-21 10:21 | 25.41474 | 54.23240 | 25366 ft | 408 kts | 283° |
| 2026-04-21 10:21 | 25.42226 | 54.20199 | 25708 ft | 411 kts | 283° |
| 2026-04-21 10:21 | 25.42970 | 54.17143 | 26038 ft | 413 kts | 282° |
| 2026-04-21 10:22 | 25.43718 | 54.14066 | 26372 ft | 415 kts | 282° |
| 2026-04-21 10:22 | 25.44474 | 54.10976 | 26702 ft | 417 kts | 283° |
| 2026-04-21 10:22 | 25.45235 | 54.07869 | 27029 ft | 419 kts | 282° |
| 2026-04-21 10:22 | 25.45991 | 54.04747 | 27355 ft | 421 kts | 282° |
| 2026-04-21 10:23 | 25.46747 | 54.01606 | 27674 ft | 423 kts | 282° |
| 2026-04-21 10:23 | 25.47502 | 53.98447 | 27985 ft | 426 kts | 282° |
| 2026-04-21 10:23 | 25.48259 | 53.95276 | 28331 ft | 427 kts | 282° |
| 2026-04-21 10:23 | 25.49020 | 53.92094 | 28651 ft | 428 kts | 282° |
| 2026-04-21 10:24 | 25.49786 | 53.88902 | 28969 ft | 430 kts | 282° |
| 2026-04-21 10:24 | 25.50557 | 53.85694 | 29233 ft | 432 kts | 282° |
| 2026-04-21 10:24 | 25.51332 | 53.82477 | 29503 ft | 434 kts | 282° |
| 2026-04-21 10:24 | 25.52108 | 53.79243 | 29770 ft | 435 kts | 282° |
| 2026-04-21 10:25 | 25.52882 | 53.75999 | 29994 ft | 437 kts | 282° |
| 2026-04-21 10:25 | 25.54405 | 53.69618 | 30065 ft | 419 kts | 282° |
| 2026-04-21 10:26 | 25.55891 | 53.63426 | 30065 ft | 415 kts | 282° |
| 2026-04-21 10:26 | 25.57362 | 53.57261 | 30065 ft | 414 kts | 282° |
| 2026-04-21 10:27 | 25.58828 | 53.51097 | 30065 ft | 414 kts | 282° |
| 2026-04-21 10:27 | 25.60292 | 53.44929 | 30065 ft | 414 kts | 282° |
| 2026-04-21 10:28 | 25.61757 | 53.38767 | 30065 ft | 413 kts | 282° |
| 2026-04-21 10:28 | 25.63222 | 53.32566 | 30065 ft | 413 kts | 282° |
| 2026-04-21 10:29 | 25.64666 | 53.26410 | 30065 ft | 413 kts | 282° |
| 2026-04-21 10:29 | 25.66117 | 53.20252 | 30067 ft | 413 kts | 282° |
| 2026-04-21 10:30 | 25.67564 | 53.14095 | 30068 ft | 413 kts | 282° |
| 2026-04-21 10:30 | 25.69007 | 53.07939 | 30061 ft | 412 kts | 282° |
| 2026-04-21 10:31 | 25.70522 | 53.01816 | 30050 ft | 413 kts | 288° |
| 2026-04-21 10:31 | 25.73077 | 52.96075 | 30044 ft | 416 kts | 294° |
| 2026-04-21 10:32 | 25.75766 | 52.90404 | 30038 ft | 415 kts | 294° |
| 2026-04-21 10:32 | 25.78448 | 52.84729 | 30035 ft | 415 kts | 294° |
| 2026-04-21 10:33 | 25.81121 | 52.79064 | 30034 ft | 414 kts | 294° |
| 2026-04-21 10:33 | 25.83788 | 52.73402 | 30033 ft | 414 kts | 294° |
| 2026-04-21 10:34 | 25.86453 | 52.67742 | 30025 ft | 413 kts | 294° |
| 2026-04-21 10:34 | 25.89106 | 52.62083 | 30025 ft | 413 kts | 294° |
| 2026-04-21 10:35 | 25.91719 | 52.56402 | 30026 ft | 412 kts | 292° |
| 2026-04-21 10:35 | 25.94226 | 52.50682 | 30023 ft | 411 kts | 292° |
| 2026-04-21 10:36 | 25.96724 | 52.44917 | 30020 ft | 411 kts | 292° |
| 2026-04-21 10:36 | 25.99222 | 52.39199 | 30030 ft | 411 kts | 292° |
| 2026-04-21 10:37 | 26.01770 | 52.33501 | 30027 ft | 412 kts | 292° |
| 2026-04-21 10:37 | 26.04333 | 52.27808 | 30027 ft | 411 kts | 292° |
| 2026-04-21 10:38 | 26.06882 | 52.22116 | 30030 ft | 411 kts | 292° |
| 2026-04-21 10:38 | 26.09410 | 52.16422 | 30031 ft | 410 kts | 292° |
| 2026-04-21 10:39 | 26.11939 | 52.10732 | 30030 ft | 410 kts | 292° |
| 2026-04-21 10:39 | 26.14463 | 52.05040 | 30031 ft | 410 kts | 292° |
| 2026-04-21 10:40 | 26.16979 | 51.99356 | 30015 ft | 409 kts | 292° |
| 2026-04-21 10:40 | 26.19530 | 51.93683 | 30022 ft | 410 kts | 292° |
| 2026-04-21 10:41 | 26.22071 | 51.88007 | 30015 ft | 409 kts | 292° |
| 2026-04-21 10:41 | 26.24570 | 51.82316 | 30025 ft | 409 kts | 292° |
| 2026-04-21 10:42 | 26.27089 | 51.76589 | 30014 ft | 409 kts | 292° |
| 2026-04-21 10:42 | 26.29618 | 51.70921 | 30008 ft | 408 kts | 292° |
| 2026-04-21 10:43 | 26.32152 | 51.65254 | 30010 ft | 408 kts | 292° |
| 2026-04-21 10:43 | 26.34252 | 51.60547 | 30016 ft | 408 kts | 292° |
| 2026-04-21 10:44 | 26.36774 | 51.54886 | 30011 ft | 407 kts | 292° |
| 2026-04-21 10:44 | 26.38925 | 51.49082 | 30015 ft | 404 kts | 285° |
| 2026-04-21 10:45 | 26.40805 | 51.43183 | 30017 ft | 403 kts | 285° |
| 2026-04-21 10:45 | 26.42690 | 51.37285 | 30016 ft | 403 kts | 285° |
| 2026-04-21 10:46 | 26.44576 | 51.31398 | 30018 ft | 403 kts | 285° |
| 2026-04-21 10:46 | 26.46452 | 51.25513 | 30028 ft | 402 kts | 285° |
| 2026-04-21 10:47 | 26.47183 | 51.23226 | 30012 ft | 401 kts | 285° |